Central Virginia Flyers


Central Virginia Flyers is a 10 member flying club based in Richmond, VA at Hanover County Airport (KOFP). We own N787AT, a 1977 Cessna 172 with 180hp conversion. If you are interested in membership, please contact Brenton at [email protected]


Aviation Digital Data Service (ADDS)

Output produced by METARs form (1440 UTC 25 March 2019)
found at http://aviationweather.gov/metar/data/
 
KOFP 251354Z AUTO 00000KT 10SM CLR 16/03 A3002 RMK AO2 SLP165 T01610033
KRIC 251354Z 25003KT 10SM SCT230 OVC300 16/06 A3001 RMK AO2 SLP168 T01560061
KRIC 251120Z 2512/2612 20005KT P6SM SCT110 BKN140 OVC300 
     FM251800 10005KT P6SM OVC070 
     FM252100 05007KT 6SM -RA OVC050 
     FM260600 03010KT P6SM OVC010